Josephine, Alabama
Current Conditions -  °F | °C
As of 7:55 PM on Friday 21 Nov 2014 (Local Time) from KJKA Reporting Station
Clear Clear  
Wind Chill: 47°   Ceiling: Unl
Heat Index: 47°   Visibility: 7mi
Dew Point: 46°   Wind: 0mph
Humidity: 98%   Direction: NA
Pressure: 30.3"   Gusts: NA
Location:  30.4162°N, 87.5594°W
Report Text: KJKA 220155Z AUTO 00000KT 7SM CLR 08/08 A3030 RMK AO2 T00830080
Loading
Personal Weather Stations






























Interactive Weather Map New forecast layout! Learn more

10-Day Weather Forecast

Advertisements
Track Severe Weather on mobile